Time;durP1;ratioP1;P1;durP2;ratioP2;P2;SDS_P1;SDS_P2;PMS_P1;PMS_P2;Temp;Humidity;BMP_temperature;BMP_pressure;BME280_temperature;BME280_humidity;BME280_pressure;Samples;Min_cycle;Max_cycle;Signal;HPM_P1;HPM_P2
2021/04/06 00:00:16;;;;;;;2.50;1.30;;;;;;;1.92;70.68;96069.25;5116119;27;20877;-61
2021/04/06 00:02:47;;;;;;;2.50;1.60;;;;;;;1.64;70.45;96066.47;5127284;27;20459;-61
2021/04/06 00:05:15;;;;;;;3.40;1.43;;;;;;;1.71;71.46;96072.53;5139312;27;20405;-61
2021/04/06 00:07:42;;;;;;;4.83;1.40;;;;;;;0.96;74.38;96076.16;5156906;27;20405;-62
2021/04/06 00:10:27;;;;;;;1.73;1.23;;;;;;;0.65;76.91;96063.25;5155135;27;20428;-60
2021/04/06 00:12:55;;;;;;;2.90;1.40;;;;;;;0.83;77.71;96063.78;5119979;27;20418;-61
2021/04/06 00:15:22;;;;;;;2.90;1.60;;;;;;;0.50;78.44;96065.00;5115663;27;20479;-60
2021/04/06 00:17:50;;;;;;;3.30;2.57;;;;;;;0.30;80.17;96068.16;5118632;27;20424;-61
2021/04/06 00:20:18;;;;;;;1.47;1.37;;;;;;;0.34;79.41;96062.50;5134616;27;20778;-60
2021/04/06 00:22:46;;;;;;;3.23;2.87;;;;;;;0.04;81.28;96070.25;5131651;27;20451;-59
2021/04/06 00:25:17;;;;;;;4.10;1.67;;;;;;;-0.18;82.04;96059.66;5115613;28;20424;-60
2021/04/06 00:27:46;;;;;;;2.10;1.90;;;;;;;0.08;81.49;96053.44;5133135;27;20421;-61
2021/04/06 00:30:14;;;;;;;4.33;1.70;;;;;;;0.06;81.30;96061.34;5134316;27;20437;-61
2021/04/06 00:32:42;;;;;;;4.37;1.67;;;;;;;0.32;81.01;96061.06;5131666;27;20421;-62
2021/04/06 00:35:10;;;;;;;5.73;4.07;;;;;;;-0.10;81.78;96062.22;5137121;27;20412;-60
2021/04/06 00:37:43;;;;;;;2.73;1.60;;;;;;;-0.26;82.47;96059.72;5151925;27;20423;-60
2021/04/06 00:40:10;;;;;;;4.97;1.93;;;;;;;-0.23;83.42;96059.38;5134032;27;20436;-60
2021/04/06 00:42:37;;;;;;;7.50;1.93;;;;;;;-0.17;82.67;96056.13;5135723;27;20431;-60
2021/04/06 00:45:13;;;;;;;3.13;2.23;;;;;;;0.00;83.38;96059.47;5132768;27;20945;-60
2021/04/06 00:47:39;;;;;;;4.33;1.73;;;;;;;0.24;81.34;96067.06;5135307;27;20501;-59
2021/04/06 00:50:07;;;;;;;3.43;2.10;;;;;;;0.02;81.57;96060.06;5135632;27;20425;-60
2021/04/06 00:52:33;;;;;;;2.10;1.90;;;;;;;-0.04;80.92;96056.38;5133935;27;20549;-60
2021/04/06 00:55:00;;;;;;;3.90;2.53;;;;;;;-0.33;83.54;96070.84;5121981;27;20510;-60
2021/04/06 00:57:28;;;;;;;4.00;1.80;;;;;;;-0.14;83.05;96066.09;5125538;27;20175;-60
2021/04/06 01:00:13;;;;;;;5.43;2.10;;;;;;;0.12;81.96;96072.78;5135542;27;20781;-61
2021/04/06 01:02:39;;;;;;;2.23;2.00;;;;;;;0.20;80.30;96065.00;5124976;27;20424;-61
2021/04/06 01:05:08;;;;;;;3.73;1.77;;;;;;;0.22;80.23;96081.91;5122272;27;20419;-60
2021/04/06 01:07:36;;;;;;;1.77;1.63;;;;;;;0.08;81.37;96074.09;5133406;27;20422;-60
2021/04/06 01:10:05;;;;;;;4.80;2.20;;;;;;;0.26;80.00;96074.63;5135010;27;20956;-60
2021/04/06 01:12:30;;;;;;;3.07;2.10;;;;;;;0.42;80.51;96070.19;5135181;27;20988;-61
2021/04/06 01:14:57;;;;;;;2.97;2.17;;;;;;;0.63;79.20;96074.75;5135692;27;20440;-60
2021/04/06 01:17:32;;;;;;;2.30;2.07;;;;;;;0.36;79.58;96078.66;5134808;27;20168;-62
2021/04/06 01:20:10;;;;;;;3.00;1.90;;;;;;;0.81;78.67;96073.50;5134948;27;20436;-61
2021/04/06 01:22:36;;;;;;;3.87;2.17;;;;;;;0.89;76.59;96077.78;5114907;28;20801;-60
2021/04/06 01:25:03;;;;;;;3.30;1.70;;;;;;;0.91;76.54;96058.56;5114692;27;20454;-61
2021/04/06 01:27:28;;;;;;;3.33;2.10;;;;;;;0.88;76.08;96061.50;5123501;27;20918;-60
2021/04/06 01:29:56;;;;;;;2.30;1.80;;;;;;;0.82;76.16;96054.44;5134658;27;20436;-61
2021/04/06 01:32:28;;;;;;;4.70;1.47;;;;;;;0.80;76.41;96060.75;5134880;27;20563;-61
2021/04/06 01:34:54;;;;;;;3.00;1.63;;;;;;;0.60;77.34;96070.72;5133221;27;20413;-60
2021/04/06 01:37:25;;;;;;;4.07;2.10;;;;;;;0.53;77.74;96063.84;5134564;27;20417;-61
2021/04/06 01:39:53;;;;;;;2.93;2.00;;;;;;;0.48;77.30;96061.78;5134663;27;20430;-60
2021/04/06 01:42:21;;;;;;;2.10;1.70;;;;;;;0.51;78.10;96060.59;5135081;27;20457;-61
2021/04/06 01:44:49;;;;;;;3.93;2.00;;;;;;;0.23;77.86;96060.31;5134931;27;20402;-61
2021/04/06 01:47:16;;;;;;;3.17;2.00;;;;;;;0.18;78.47;96054.03;5134186;27;20413;-62
2021/04/06 01:49:43;;;;;;;3.33;1.90;;;;;;;0.24;78.53;96049.00;5131141;27;20441;-61
2021/04/06 01:52:09;;;;;;;5.40;1.70;;;;;;;0.17;78.55;96058.38;5134547;27;20941;-61
2021/04/06 01:54:37;;;;;;;2.70;2.13;;;;;;;-0.18;79.09;96049.34;5135023;27;20458;-61
2021/04/06 01:57:12;;;;;;;5.10;2.20;;;;;;;-0.05;79.60;96046.22;5133304;27;20409;-60
2021/04/06 01:59:43;;;;;;;2.57;1.90;;;;;;;-0.27;79.88;96050.34;5134728;27;20492;-60
2021/04/06 02:02:10;;;;;;;2.00;1.70;;;;;;;-0.11;79.59;96036.59;5133298;27;20418;-61
2021/04/06 02:04:37;;;;;;;1.70;1.60;;;;;;;-0.44;80.95;96028.16;5134454;27;20761;-61
2021/04/06 02:07:07;;;;;;;4.10;2.20;;;;;;;-0.49;81.89;96032.22;5134187;27;20424;-62
2021/04/06 02:09:32;;;;;;;10.30;2.77;;;;;;;-0.73;82.71;96037.41;5134475;27;20421;-60
2021/04/06 02:11:58;;;;;;;2.70;1.83;;;;;;;-0.72;82.43;96032.09;5134271;27;21015;-61
2021/04/06 02:14:25;;;;;;;4.17;2.60;;;;;;;-0.90;82.78;96036.63;5134574;27;20182;-61
2021/04/06 02:16:54;;;;;;;2.30;1.67;;;;;;;-0.96;83.44;96034.69;5124170;27;20202;-62
2021/04/06 02:19:37;;;;;;;2.93;1.90;;;;;;;-0.82;82.89;96026.31;5113670;28;20437;-60
2021/04/06 02:22:04;;;;;;;2.30;1.77;;;;;;;-0.78;82.24;96031.94;5114004;28;20813;-60
2021/04/06 02:24:35;;;;;;;5.90;2.63;;;;;;;-0.82;82.05;96036.63;5114126;28;20412;-60
2021/04/06 02:27:04;;;;;;;4.03;2.43;;;;;;;-0.77;82.89;96024.03;5113640;28;20413;-60
2021/04/06 02:29:31;;;;;;;2.00;1.90;;;;;;;-0.58;82.22;96028.03;5114629;28;20825;-60
2021/04/06 02:31:58;;;;;;;3.97;2.10;;;;;;;-0.81;82.71;96029.69;5113691;28;20484;-60
2021/04/06 02:34:43;;;;;;;3.40;1.90;;;;;;;-0.89;82.52;96029.72;5113956;28;20417;-59
2021/04/06 02:37:17;;;;;;;2.60;2.40;;;;;;;-1.15;83.97;96035.03;5113218;28;20504;-61
2021/04/06 02:39:43;;;;;;;4.50;2.00;;;;;;;-0.95;83.57;96028.59;5113431;28;20434;-60
2021/04/06 02:42:48;;;;;;;1.97;1.87;;;;;;;-0.98;83.36;96034.09;5113741;28;20403;-61
2021/04/06 02:45:19;;;;;;;3.20;1.80;;;;;;;-1.01;83.67;96018.91;5082782;28;20195;-62
2021/04/06 02:47:44;;;;;;;8.23;2.70;;;;;;;-1.48;84.15;96033.41;5111755;28;20797;-60
2021/04/06 02:50:15;;;;;;;1.60;1.50;;;;;;;-1.40;84.72;96033.44;5113429;28;20425;-59
2021/04/06 02:52:41;;;;;;;1.67;1.57;;;;;;;-1.34;84.56;96031.00;5113652;28;20647;-60
2021/04/06 02:55:09;;;;;;;2.20;1.87;;;;;;;-1.68;85.88;96032.91;5113685;28;20423;-60
2021/04/06 02:57:43;;;;;;;3.23;2.10;;;;;;;-1.72;86.28;96029.03;5116255;28;20256;-59
2021/04/06 03:00:09;;;;;;;1.93;1.50;;;;;;;-1.75;86.55;96024.22;5133979;27;20431;-61
2021/04/06 03:02:41;;;;;;;2.07;1.87;;;;;;;-1.56;85.84;96028.28;5134133;27;20404;-62
2021/04/06 03:05:08;;;;;;;3.00;2.53;;;;;;;-1.74;85.99;96023.25;5132009;27;20426;-60
2021/04/06 03:07:44;;;;;;;2.23;1.87;;;;;;;-1.45;85.83;96012.50;5133480;27;20815;-60
2021/04/06 03:10:20;;;;;;;5.33;1.90;;;;;;;-1.40;85.95;96023.13;5137602;27;20851;-60
2021/04/06 03:12:49;;;;;;;4.93;2.63;;;;;;;-1.52;85.79;96014.13;5136034;27;20449;-60
2021/04/06 03:15:21;;;;;;;4.93;2.27;;;;;;;-1.50;85.09;96009.59;5137625;27;20404;-60
2021/04/06 03:17:49;;;;;;;4.30;1.87;;;;;;;-1.53;86.01;96003.00;5137292;27;20489;-60
2021/04/06 03:20:17;;;;;;;4.37;2.20;;;;;;;-1.66;85.52;96005.25;5136160;27;20426;-60
2021/04/06 03:22:43;;;;;;;2.60;2.40;;;;;;;-1.72;86.35;96010.25;5137495;27;20429;-61
2021/04/06 03:25:11;;;;;;;3.03;2.07;;;;;;;-1.54;85.39;96003.97;5120470;27;20427;-61
2021/04/06 03:27:42;;;;;;;3.47;2.20;;;;;;;-1.64;86.00;96010.22;5116518;28;20174;-61
2021/04/06 03:30:08;;;;;;;3.50;1.97;;;;;;;-1.65;86.04;96013.78;5116803;28;20419;-60
2021/04/06 03:32:34;;;;;;;3.90;2.20;;;;;;;-1.37;86.16;96012.50;5116849;28;20410;-60
2021/04/06 03:34:59;;;;;;;2.23;2.07;;;;;;;-1.55;85.23;96004.94;5116763;28;20199;-60
2021/04/06 03:37:24;;;;;;;3.90;2.73;;;;;;;-1.83;87.36;96001.03;5117512;27;20174;-60
2021/04/06 03:39:51;;;;;;;3.93;1.90;;;;;;;-1.61;86.19;96004.78;5116739;28;20189;-60
2021/04/06 03:42:26;;;;;;;2.63;2.43;;;;;;;-1.66;85.83;95999.28;5116703;27;20240;-59
2021/04/06 03:45:12;;;;;;;3.43;2.10;;;;;;;-1.68;85.66;96001.22;5116434;27;20483;-60
2021/04/06 03:47:58;;;;;;;5.10;2.10;;;;;;;-1.68;84.92;96002.03;5115910;28;20431;-62
2021/04/06 03:50:38;;;;;;;3.50;2.30;;;;;;;-1.40;85.04;95997.38;5115020;28;20461;-61
2021/04/06 03:53:06;;;;;;;2.77;2.37;;;;;;;-1.53;84.38;96005.59;5132421;27;20418;-60
2021/04/06 03:55:33;;;;;;;2.43;2.23;;;;;;;-1.74;85.15;95996.72;5136853;27;20461;-60
2021/04/06 03:58:04;;;;;;;2.40;2.20;;;;;;;-1.79;85.59;95992.03;5136429;27;20403;-60
2021/04/06 04:00:29;;;;;;;3.10;2.70;;;;;;;-1.75;86.09;95995.09;5136882;27;20758;-60
2021/04/06 04:02:57;;;;;;;3.33;2.67;;;;;;;-1.56;85.28;95990.44;5136824;27;20414;-60
2021/04/06 04:05:23;;;;;;;2.17;1.97;;;;;;;-1.18;83.90;95992.34;5133810;27;20651;-59
2021/04/06 04:07:48;;;;;;;7.03;2.90;;;;;;;-1.29;82.84;95995.28;5136381;27;20442;-61
2021/04/06 04:10:14;;;;;;;2.70;2.33;;;;;;;-1.05;82.50;95997.00;5136012;27;20203;-60
2021/04/06 04:12:39;;;;;;;2.13;1.93;;;;;;;-1.22;82.58;96005.75;5136520;27;20172;-60
2021/04/06 04:15:06;;;;;;;7.30;2.93;;;;;;;-1.10;83.03;96001.84;5136571;27;20200;-60
2021/04/06 04:17:31;;;;;;;2.83;2.47;;;;;;;-1.17;82.17;96008.63;5136318;27;20291;-60
2021/04/06 04:19:57;;;;;;;6.43;2.40;;;;;;;-1.28;82.88;96002.03;5125986;27;20900;-60
2021/04/06 04:22:22;;;;;;;4.13;2.77;;;;;;;-1.00;82.54;96009.44;5115684;28;20158;-60
2021/04/06 04:24:48;;;;;;;6.87;3.40;;;;;;;-1.06;83.06;96008.31;5115724;28;20171;-60
2021/04/06 04:27:13;;;;;;;4.90;3.17;;;;;;;-0.98;83.12;96004.91;5115316;28;20173;-62
2021/04/06 04:29:39;;;;;;;5.67;2.30;;;;;;;-0.89;83.34;96006.50;5116038;28;20623;-60
2021/04/06 04:32:13;;;;;;;6.83;3.70;;;;;;;-1.18;83.84;96004.47;5115834;28;20234;-60
2021/04/06 04:34:38;;;;;;;3.20;2.90;;;;;;;-1.08;83.66;95999.94;5135850;27;20229;-60
2021/04/06 04:37:04;;;;;;;4.33;3.10;;;;;;;-1.01;84.10;95994.94;5135573;27;20500;-62
2021/04/06 04:39:29;;;;;;;3.80;2.93;;;;;;;-1.03;84.06;95996.88;5135938;27;20239;-61
2021/04/06 04:41:54;;;;;;;8.67;3.43;;;;;;;-0.98;82.32;95999.75;5136003;27;20475;-60
2021/04/06 04:44:20;;;;;;;9.57;3.17;;;;;;;-1.07;84.17;96004.91;5135850;27;20184;-60
2021/04/06 04:46:45;;;;;;;3.17;2.40;;;;;;;-0.99;83.86;96006.69;5122156;27;20564;-60
2021/04/06 04:49:11;;;;;;;7.23;3.90;;;;;;;-0.99;84.24;96006.69;5115879;27;20617;-60
2021/04/06 04:51:36;;;;;;;3.60;3.03;;;;;;;-1.11;84.44;95997.69;5125358;27;20197;-61
2021/04/06 04:54:02;;;;;;;4.40;2.80;;;;;;;-1.20;84.99;96006.38;5154416;27;20170;-61
2021/04/06 04:56:27;;;;;;;7.27;2.70;;;;;;;-0.90;84.19;96003.13;5151723;27;20168;-61
2021/04/06 04:58:52;;;;;;;5.60;3.07;;;;;;;-0.81;84.17;96006.47;5135310;27;20184;-59
2021/04/06 05:01:18;;;;;;;3.10;2.80;;;;;;;-1.22;84.53;96009.13;5116846;27;20175;-61
2021/04/06 05:03:43;;;;;;;9.60;3.60;;;;;;;-0.96;84.59;96002.97;5115134;28;20747;-60
2021/04/06 05:06:09;;;;;;;5.27;3.53;;;;;;;-1.05;84.94;96012.47;5114849;27;20174;-60
2021/04/06 05:08:34;;;;;;;3.33;3.10;;;;;;;-1.05;85.09;96004.75;5114428;28;20599;-60
2021/04/06 05:10:59;;;;;;;7.83;2.97;;;;;;;-0.98;85.23;96007.50;5114734;28;20285;-61
2021/04/06 05:13:26;;;;;;;7.90;3.10;;;;;;;-1.10;85.46;96005.25;5114849;27;20162;-60
2021/04/06 05:15:52;;;;;;;8.57;3.60;;;;;;;-1.02;85.60;96011.34;5113615;28;20574;-60
2021/04/06 05:18:19;;;;;;;12.33;3.30;;;;;;;-1.10;85.29;96009.59;5114252;28;20499;-60
2021/04/06 05:20:44;;;;;;;7.83;3.40;;;;;;;-1.17;85.57;96011.22;5118099;27;20413;-60
2021/04/06 05:23:09;;;;;;;4.80;3.40;;;;;;;-1.17;86.48;96004.28;5144814;27;20467;-60
2021/04/06 05:25:35;;;;;;;5.83;3.07;;;;;;;-1.16;87.68;96010.25;5155861;27;20169;-60
2021/04/06 05:28:00;;;;;;;4.63;3.33;;;;;;;-1.11;86.70;96011.38;5155284;27;20200;-60
2021/04/06 05:30:26;;;;;;;7.37;3.13;;;;;;;-1.00;85.96;96001.69;5155427;27;20192;-60
2021/04/06 05:32:51;;;;;;;4.30;3.10;;;;;;;-0.85;85.89;96007.81;5155431;27;20236;-60
2021/04/06 05:35:17;;;;;;;6.40;4.00;;;;;;;-1.12;86.74;96011.53;5155794;27;20421;-60
2021/04/06 05:37:42;;;;;;;4.47;2.63;;;;;;;-0.94;86.19;96009.56;5155224;27;20518;-59
2021/04/06 05:40:08;;;;;;;3.80;2.73;;;;;;;-0.81;85.88;96009.06;5127259;27;20742;-60
2021/04/06 05:42:34;;;;;;;5.90;2.93;;;;;;;-0.86;86.23;96006.19;5114306;28;20166;-60
2021/04/06 05:45:00;;;;;;;6.90;3.10;;;;;;;-0.83;86.42;96011.81;5114266;28;20415;-59
2021/04/06 05:47:39;;;;;;;7.60;3.80;;;;;;;-0.69;85.96;96005.97;5113870;28;20170;-64
2021/04/06 05:50:07;;;;;;;5.50;3.43;;;;;;;-0.52;85.83;95994.66;5114329;28;20420;-61
2021/04/06 05:52:33;;;;;;;6.53;3.33;;;;;;;-0.69;85.45;95995.66;5114509;27;20465;-60
2021/04/06 05:55:00;;;;;;;3.83;2.87;;;;;;;-0.76;85.53;95991.34;5126022;27;20804;-60
2021/04/06 05:57:26;;;;;;;4.43;3.07;;;;;;;-0.71;86.14;95989.06;5134260;27;20395;-61
2021/04/06 05:59:51;;;;;;;5.50;3.10;;;;;;;-0.66;85.46;95990.19;5134051;27;20445;-60
2021/04/06 06:02:17;;;;;;;5.93;3.27;;;;;;;-0.67;86.00;95993.72;5134688;27;20169;-60
2021/04/06 06:04:42;;;;;;;5.60;3.27;;;;;;;-0.56;85.66;95987.41;5134444;27;20220;-60
2021/04/06 06:07:08;;;;;;;7.27;3.57;;;;;;;-0.58;85.46;95984.97;5132281;27;20633;-61
2021/04/06 06:09:35;;;;;;;4.93;3.00;;;;;;;-0.68;85.82;95991.31;5134461;27;20182;-60
2021/04/06 06:12:07;;;;;;;3.10;2.83;;;;;;;-0.61;87.36;95995.63;5134439;27;20200;-60
2021/04/06 06:14:35;;;;;;;4.73;2.83;;;;;;;-0.59;86.10;96001.44;5134462;27;20444;-60
2021/04/06 06:17:23;;;;;;;4.60;3.47;;;;;;;-0.28;85.59;96002.31;5133975;27;20394;-61
2021/04/06 06:19:55;;;;;;;5.33;2.90;;;;;;;-0.02;84.70;96010.56;5134220;28;20440;-60
2021/04/06 06:22:21;;;;;;;11.47;4.00;;;;;;;0.09;83.16;96014.56;5116685;27;20412;-60
2021/04/06 06:25:01;;;;;;;3.80;2.83;;;;;;;0.04;84.08;96006.50;5120796;28;20459;-60
2021/04/06 06:27:38;;;;;;;9.00;3.37;;;;;;;-0.08;83.70;96006.09;5134051;27;20777;-61
2021/04/06 06:30:31;;;;;;;3.10;2.50;;;;;;;0.12;84.30;96009.03;5134223;27;20420;-60
2021/04/06 06:33:18;;;;;;;4.03;3.03;;;;;;;0.05;82.47;96013.28;5134261;27;20415;-60
2021/04/06 06:36:05;;;;;;;4.80;2.90;;;;;;;0.35;83.00;96007.28;5126665;27;20462;-61
2021/04/06 06:38:49;;;;;;;9.60;3.60;;;;;;;0.26;81.71;96021.22;5133799;27;20503;-60
2021/04/06 06:41:20;;;;;;;4.20;3.17;;;;;;;-0.01;84.29;96012.19;5133928;28;20453;-60
2021/04/06 06:43:50;;;;;;;7.20;4.40;;;;;;;0.07;82.97;96006.16;5134105;27;20421;-60
2021/04/06 06:46:30;;;;;;;8.20;3.47;;;;;;;0.02;83.83;96015.41;5138366;27;20405;-60
2021/04/06 06:49:03;;;;;;;5.50;3.90;;;;;;;0.06;83.20;96009.72;5135902;27;20431;-59
2021/04/06 06:51:40;;;;;;;3.30;2.80;;;;;;;0.28;83.01;96005.53;5136632;27;20818;-61
2021/04/06 06:54:06;;;;;;;9.30;3.63;;;;;;;0.19;82.79;96011.72;5136816;27;20428;-60
2021/04/06 06:56:42;;;;;;;6.43;2.73;;;;;;;0.17;82.35;96005.94;5137849;27;20883;-60
2021/04/06 06:59:08;;;;;;;6.90;3.00;;;;;;;0.35;83.03;96003.88;5135700;27;20198;-59
2021/04/06 07:01:36;;;;;;;9.17;3.40;;;;;;;0.37;82.56;95999.34;5137042;27;20412;-60
2021/04/06 07:04:05;;;;;;;7.90;3.00;;;;;;;0.51;82.28;96001.19;5117180;27;20906;-60
2021/04/06 07:06:30;;;;;;;6.10;2.70;;;;;;;0.59;81.61;96004.53;5117149;27;20458;-59
2021/04/06 07:08:56;;;;;;;9.07;3.07;;;;;;;0.48;82.51;95998.94;5117949;27;20906;-59
2021/04/06 07:11:23;;;;;;;4.00;2.47;;;;;;;0.62;81.35;95998.19;5133178;27;20188;-60
2021/04/06 07:13:51;;;;;;;7.50;3.17;;;;;;;0.61;81.61;96001.78;5117183;27;20176;-60
2021/04/06 07:16:18;;;;;;;6.80;2.40;;;;;;;0.62;80.66;95999.00;5117239;28;20399;-60
2021/04/06 07:18:44;;;;;;;6.53;3.90;;;;;;;0.73;81.85;95997.78;5116505;28;20423;-60
2021/04/06 07:21:12;;;;;;;5.53;3.30;;;;;;;0.70;81.44;95998.16;5118096;27;20985;-59
2021/04/06 07:24:08;;;;;;;4.70;2.90;;;;;;;0.93;80.80;95996.31;5117004;28;20427;-60
2021/04/06 07:26:34;;;;;;;6.03;3.73;;;;;;;0.98;80.70;95994.00;5127513;27;20418;-60
2021/04/06 07:29:00;;;;;;;5.70;4.10;;;;;;;0.99;81.22;95991.28;5137056;27;20423;-60
2021/04/06 07:31:26;;;;;;;9.70;3.53;;;;;;;0.76;80.55;95997.47;5133588;27;20212;-61
2021/04/06 07:33:52;;;;;;;5.70;3.17;;;;;;;0.77;80.95;95993.88;5122734;27;20808;-62
2021/04/06 07:36:27;;;;;;;7.60;3.50;;;;;;;0.67;80.71;96004.44;5119025;27;20294;-61
2021/04/06 07:38:55;;;;;;;3.60;3.17;;;;;;;1.11;80.44;95994.22;5114984;27;20473;-61
2021/04/06 07:41:23;;;;;;;8.47;3.47;;;;;;;1.01;80.45;95999.63;5117919;27;20776;-60
2021/04/06 07:43:53;;;;;;;7.90;2.60;;;;;;;0.97;79.89;96010.53;5121089;27;20917;-60
2021/04/06 07:46:34;;;;;;;5.53;2.93;;;;;;;0.94;79.47;96003.91;5128974;27;20445;-61
2021/04/06 07:49:29;;;;;;;3.70;2.90;;;;;;;0.96;79.76;96004.53;5115379;27;20457;-60
2021/04/06 07:51:57;;;;;;;3.77;2.67;;;;;;;1.05;78.60;96000.13;5123279;27;20498;-60
2021/04/06 07:54:31;;;;;;;4.07;2.87;;;;;;;1.24;79.29;96001.38;5116454;28;20399;-60
2021/04/06 07:57:03;;;;;;;13.80;3.40;;;;;;;1.11;79.47;95996.81;5125819;27;20432;-62
2021/04/06 07:59:28;;;;;;;4.77;2.70;;;;;;;1.19;79.16;95995.94;5136724;27;20426;-60
2021/04/06 08:01:53;;;;;;;4.30;2.13;;;;;;;1.17;78.51;95998.69;5128342;27;20798;-60
2021/04/06 08:04:20;;;;;;;5.73;2.40;;;;;;;1.53;78.60;96001.38;5120911;27;20633;-60
2021/04/06 08:06:54;;;;;;;6.90;2.60;;;;;;;1.19;77.75;96009.69;5116226;28;20173;-62
2021/04/06 08:09:28;;;;;;;5.30;3.27;;;;;;;1.46;78.38;96006.47;5122540;27;20957;-62
2021/04/06 08:12:10;;;;;;;3.70;2.53;;;;;;;1.68;77.08;95992.66;5116031;28;20543;-61
2021/04/06 08:14:47;;;;;;;5.50;3.10;;;;;;;2.02;75.08;96000.63;5115507;27;20469;-65
2021/04/06 08:17:25;;;;;;;8.20;3.50;;;;;;;2.05;75.33;95999.44;5117081;27;20434;-65
2021/04/06 08:20:06;;;;;;;6.70;3.00;;;;;;;1.94;74.40;95995.56;5113477;28;20530;-64
2021/04/06 08:22:47;;;;;;;4.87;2.80;;;;;;;1.88;77.89;96000.66;5111889;28;20419;-62
2021/04/06 08:25:16;;;;;;;4.73;3.70;;;;;;;2.26;76.18;96002.09;5112071;27;20437;-61
2021/04/06 08:27:52;;;;;;;6.07;3.43;;;;;;;2.12;76.57;95997.75;5120172;27;20565;-61
2021/04/06 08:30:26;;;;;;;2.67;2.43;;;;;;;2.08;75.95;96005.06;5111677;27;20458;-66
2021/04/06 08:32:58;;;;;;;5.10;3.33;;;;;;;2.21;74.43;96004.41;5114788;27;20429;-62
2021/04/06 08:35:55;;;;;;;3.80;3.00;;;;;;;2.53;74.77;96001.38;5125520;27;20438;-63
2021/04/06 08:38:23;;;;;;;5.87;2.80;;;;;;;2.70;73.52;96001.94;5122013;27;20829;-66
2021/04/06 08:40:53;;;;;;;8.47;3.60;;;;;;;2.68;73.45;96009.09;5114846;27;20513;-65
2021/04/06 08:43:21;;;;;;;6.10;3.47;;;;;;;2.51;74.30;96012.91;5120364;27;20891;-62
2021/04/06 08:46:02;;;;;;;8.50;3.00;;;;;;;2.54;75.33;96005.56;5112982;27;20442;-61
2021/04/06 08:48:52;;;;;;;3.50;2.57;;;;;;;2.75;75.23;96021.16;5112530;27;20507;-59
2021/04/06 08:51:17;;;;;;;4.50;2.73;;;;;;;2.07;75.74;96018.22;5114644;27;20549;-61
2021/04/06 08:53:43;;;;;;;4.77;2.60;;;;;;;2.29;74.33;96009.50;5115184;27;20460;-61
2021/04/06 08:56:13;;;;;;;4.53;2.70;;;;;;;1.92;76.12;96014.88;5118442;27;20183;-60
2021/04/06 08:58:38;;;;;;;8.80;2.57;;;;;;;2.17;75.97;96012.75;5133433;27;20421;-61
2021/04/06 09:01:05;;;;;;;4.83;2.70;;;;;;;2.55;74.85;96008.97;5135637;27;20394;-59
2021/04/06 09:03:31;;;;;;;3.60;2.30;;;;;;;2.45;75.15;96017.03;5128405;27;20185;-60
2021/04/06 09:06:08;;;;;;;6.20;2.87;;;;;;;2.78;74.39;96010.41;5114530;27;20428;-61
2021/04/06 09:08:52;;;;;;;3.17;2.17;;;;;;;2.48;74.53;96016.66;5114503;28;20352;-61
2021/04/06 09:11:21;;;;;;;5.33;2.77;;;;;;;2.57;75.87;96019.97;5115320;27;20892;-59
2021/04/06 09:13:48;;;;;;;5.80;2.77;;;;;;;2.26;76.02;96025.44;5115191;27;20488;-60
2021/04/06 09:16:13;;;;;;;6.90;2.57;;;;;;;2.69;75.72;96021.88;5121218;27;20488;-59
2021/04/06 09:18:40;;;;;;;8.03;2.83;;;;;;;2.48;74.66;96028.84;5121342;27;20445;-60
2021/04/06 09:21:07;;;;;;;5.87;2.50;;;;;;;2.77;76.73;96018.38;5119920;27;20183;-59
2021/04/06 09:23:37;;;;;;;2.73;2.53;;;;;;;2.77;75.60;96020.97;5114486;27;20472;-58
2021/04/06 09:26:05;;;;;;;6.83;2.77;;;;;;;2.83;76.33;96020.19;5122069;27;20509;-64
2021/04/06 09:28:31;;;;;;;6.57;3.30;;;;;;;2.96;74.89;96028.91;5126598;27;20450;-59
2021/04/06 09:30:57;;;;;;;3.20;2.10;;;;;;;2.68;73.24;96019.47;5115136;27;20464;-59
2021/04/06 09:33:23;;;;;;;2.73;2.03;;;;;;;2.96;73.38;96015.13;5121741;27;20839;-59
2021/04/06 09:35:53;;;;;;;4.83;2.00;;;;;;;2.77;72.32;96013.19;5134322;27;20412;-60
2021/04/06 09:38:23;;;;;;;2.20;2.00;;;;;;;2.91;72.95;96015.72;5121759;27;20450;-60
2021/04/06 09:40:49;;;;;;;3.93;2.43;;;;;;;2.95;72.31;96018.72;5114562;27;20492;-60
2021/04/06 09:43:15;;;;;;;4.20;2.27;;;;;;;2.77;71.65;96019.16;5111729;28;20521;-62
2021/04/06 09:45:41;;;;;;;4.50;2.77;;;;;;;2.80;72.41;96018.00;5124387;27;20780;-59
2021/04/06 09:48:11;;;;;;;3.73;2.00;;;;;;;2.80;73.07;96020.59;5113871;27;20587;-61
2021/04/06 09:50:36;;;;;;;2.37;2.17;;;;;;;3.20;73.13;96019.91;5122739;27;20215;-63
2021/04/06 09:53:02;;;;;;;2.93;2.20;;;;;;;3.17;70.03;96017.69;5114186;27;20427;-60
2021/04/06 09:55:29;;;;;;;4.03;1.97;;;;;;;3.55;70.82;96000.78;5118102;27;20177;-60
2021/04/06 09:58:00;;;;;;;4.67;2.50;;;;;;;3.76;70.92;95998.13;5130887;27;20170;-60
2021/04/06 10:00:29;;;;;;;9.07;2.60;;;;;;;3.59;72.08;96001.19;5113833;28;20889;-60
2021/04/06 10:03:01;;;;;;;6.00;2.67;;;;;;;3.65;70.48;96006.44;5112916;28;20899;-60
2021/04/06 10:05:27;;;;;;;4.73;2.27;;;;;;;3.68;69.48;96002.63;5113456;28;20441;-60
2021/04/06 10:07:52;;;;;;;5.80;2.60;;;;;;;3.24;70.05;96008.19;5117393;27;20510;-60
2021/04/06 10:10:21;;;;;;;3.67;2.20;;;;;;;3.61;69.23;96002.63;5112687;27;20285;-60
2021/04/06 10:12:47;;;;;;;4.97;2.23;;;;;;;3.84;68.40;95999.75;5123440;27;20536;-61
2021/04/06 10:15:17;;;;;;;3.23;2.57;;;;;;;3.81;68.30;96000.94;5129369;28;20429;-64
2021/04/06 10:17:43;;;;;;;9.10;2.37;;;;;;;3.97;66.69;96002.38;5115416;27;20514;-63
2021/04/06 10:20:13;;;;;;;4.23;2.10;;;;;;;3.69;66.30;95986.09;5119613;28;20555;-63
2021/04/06 10:22:57;;;;;;;5.17;2.30;;;;;;;3.72;67.15;95993.47;5114240;27;20191;-61
2021/04/06 10:25:25;;;;;;;3.13;2.57;;;;;;;3.93;67.45;95986.38;5113103;28;20490;-62
2021/04/06 10:27:56;;;;;;;4.40;1.97;;;;;;;3.96;66.53;95985.22;5115127;28;20436;-61
2021/04/06 10:30:44;;;;;;;9.43;2.23;;;;;;;4.18;67.06;95989.28;5115274;27;20437;-63
2021/04/06 10:33:11;;;;;;;5.30;2.40;;;;;;;3.98;66.84;95983.22;5128400;28;20918;-63
2021/04/06 10:35:43;;;;;;;3.53;2.20;;;;;;;4.01;64.40;95981.03;5118786;28;20420;-63
2021/04/06 10:38:17;;;;;;;4.83;2.20;;;;;;;3.70;63.79;95967.69;5113204;27;20429;-63
2021/04/06 10:40:43;;;;;;;3.07;1.83;;;;;;;3.88;63.87;95975.78;5125204;28;20508;-61
2021/04/06 10:43:17;;;;;;;6.70;2.87;;;;;;;3.86;64.75;95974.38;5129439;27;20481;-61
2021/04/06 10:45:52;;;;;;;7.70;2.63;;;;;;;4.19;66.62;95964.88;5122283;28;20184;-61
2021/04/06 10:48:17;;;;;;;4.70;2.40;;;;;;;4.25;66.01;95963.31;5131657;28;20460;-63
2021/04/06 10:50:50;;;;;;;4.47;1.97;;;;;;;3.95;65.84;95973.22;5129582;27;20467;-63
2021/04/06 10:53:31;;;;;;;4.10;1.90;;;;;;;4.05;65.00;95977.06;5125155;27;20186;-61
2021/04/06 10:56:07;;;;;;;2.80;2.53;;;;;;;3.90;66.20;95963.41;5119634;27;20424;-61
2021/04/06 10:58:37;;;;;;;3.87;2.80;;;;;;;3.90;65.31;95952.19;5126317;27;20550;-63
2021/04/06 11:01:10;;;;;;;5.20;2.33;;;;;;;3.95;65.03;95966.22;5119878;28;20421;-63
2021/04/06 11:03:47;;;;;;;5.50;2.10;;;;;;;3.63;64.35;95956.47;5112733;28;20791;-63
2021/04/06 11:06:14;;;;;;;3.03;2.00;;;;;;;3.79;65.51;95957.94;5117804;28;20446;-61
2021/04/06 11:08:42;;;;;;;2.53;2.20;;;;;;;3.72;63.95;95950.13;5118952;28;20823;-63
2021/04/06 11:11:26;;;;;;;3.93;2.20;;;;;;;3.47;64.79;95949.00;5132140;28;20804;-63
2021/04/06 11:13:53;;;;;;;2.80;2.03;;;;;;;3.92;64.42;95955.41;5114173;27;20453;-63
2021/04/06 11:16:19;;;;;;;2.10;1.90;;;;;;;4.00;66.05;95958.63;5113809;27;20541;-61
2021/04/06 11:18:57;;;;;;;2.03;1.70;;;;;;;3.68;63.14;95942.91;5129164;28;20531;-63
2021/04/06 11:21:22;;;;;;;5.43;2.20;;;;;;;3.85;63.51;95944.19;5132395;28;20196;-61
2021/04/06 11:23:48;;;;;;;2.23;2.00;;;;;;;4.35;65.27;95940.34;5123634;27;20911;-63
2021/04/06 11:26:14;;;;;;;3.50;1.93;;;;;;;4.26;64.21;95936.31;5127558;27;20204;-61
2021/04/06 11:28:39;;;;;;;2.13;1.90;;;;;;;3.77;59.81;95939.94;5112339;28;20547;-63
2021/04/06 11:31:05;;;;;;;6.30;2.00;;;;;;;4.03;60.99;95934.88;5117750;27;20451;-63
2021/04/06 11:33:31;;;;;;;4.27;2.20;;;;;;;3.61;63.56;95939.47;5135327;27;20705;-63
2021/04/06 11:35:56;;;;;;;3.93;2.20;;;;;;;3.84;63.31;95932.97;5135814;27;20433;-64
2021/04/06 11:38:21;;;;;;;4.27;2.57;;;;;;;3.64;63.02;95937.28;5136754;27;20186;-63
2021/04/06 11:40:47;;;;;;;4.27;2.50;;;;;;;3.72;62.16;95936.34;5136934;27;20170;-63
2021/04/06 11:43:12;;;;;;;4.00;1.93;;;;;;;3.46;63.73;95939.59;5129165;27;20188;-63
2021/04/06 11:45:38;;;;;;;3.80;2.10;;;;;;;3.67;63.86;95925.72;5124661;27;20187;-61
2021/04/06 11:48:04;;;;;;;4.40;1.80;;;;;;;3.37;62.71;95927.78;5115773;28;20614;-63
2021/04/06 11:50:29;;;;;;;3.90;2.20;;;;;;;3.43;61.92;95921.81;5116104;27;20261;-61